createdAt,value
2022-11-16T00:00:16.558Z,5.70
2022-11-16T00:02:44.513Z,4.13
2022-11-16T00:05:18.000Z,4.30
2022-11-16T00:07:50.598Z,4.68
2022-11-16T00:10:22.449Z,4.97
2022-11-16T00:12:50.070Z,4.20
2022-11-16T00:15:17.447Z,3.17
2022-11-16T00:17:44.784Z,3.78
2022-11-16T00:20:12.532Z,5.72
2022-11-16T00:22:42.057Z,4.20
2022-11-16T00:25:09.664Z,4.00
2022-11-16T00:27:38.223Z,4.38
2022-11-16T00:30:06.048Z,3.42
2022-11-16T00:32:34.379Z,2.75
2022-11-16T00:35:07.513Z,3.10
2022-11-16T00:37:35.212Z,4.03
2022-11-16T00:40:07.147Z,3.13
2022-11-16T00:42:35.171Z,6.47
2022-11-16T00:45:02.887Z,3.42
2022-11-16T00:47:30.171Z,3.50
2022-11-16T00:50:03.579Z,3.55
2022-11-16T00:52:31.239Z,4.53
2022-11-16T00:55:18.650Z,3.83
2022-11-16T00:57:48.973Z,4.95
2022-11-16T01:00:17.773Z,4.65
2022-11-16T01:02:47.666Z,3.03
2022-11-16T01:05:16.269Z,5.30
2022-11-16T01:07:43.866Z,4.75
2022-11-16T01:10:13.792Z,3.53
2022-11-16T01:12:41.423Z,3.45
2022-11-16T01:15:12.129Z,3.35
2022-11-16T01:17:40.907Z,4.70
2022-11-16T01:20:15.550Z,5.53
2022-11-16T01:25:11.837Z,4.07
2022-11-16T01:27:40.067Z,5.43
2022-11-16T01:30:08.727Z,3.45
2022-11-16T01:32:38.024Z,4.60
2022-11-16T01:35:09.440Z,3.30
2022-11-16T01:37:37.030Z,3.55
2022-11-16T01:40:04.574Z,3.97
2022-11-16T01:42:33.695Z,3.60
2022-11-16T01:45:01.206Z,4.93
2022-11-16T01:47:28.922Z,3.38
2022-11-16T01:49:59.338Z,3.05
2022-11-16T01:52:29.769Z,3.22
2022-11-16T01:54:57.199Z,3.33
2022-11-16T01:57:26.984Z,3.53
2022-11-16T02:00:09.530Z,3.17
2022-11-16T02:02:38.201Z,3.95
2022-11-16T02:05:07.578Z,2.97
2022-11-16T02:07:55.336Z,3.72
2022-11-16T02:10:32.537Z,4.78
2022-11-16T02:13:03.116Z,3.83
2022-11-16T02:15:33.693Z,4.45
2022-11-16T02:18:19.863Z,3.88
2022-11-16T02:20:59.590Z,5.50
2022-11-16T02:23:48.025Z,3.65
2022-11-16T02:26:23.876Z,3.08
2022-11-16T02:29:12.088Z,3.83
2022-11-16T02:31:43.507Z,3.95
2022-11-16T02:34:12.105Z,5.75
2022-11-16T02:36:41.738Z,4.70
2022-11-16T02:39:12.375Z,3.97
2022-11-16T02:41:45.606Z,3.90
2022-11-16T02:44:19.268Z,4.95
2022-11-16T02:46:52.821Z,4.45
2022-11-16T02:49:20.578Z,4.75
2022-11-16T02:51:48.532Z,2.80
2022-11-16T02:54:26.101Z,2.97
2022-11-16T02:57:00.967Z,3.70
2022-11-16T02:59:34.642Z,4.40
2022-11-16T03:02:16.342Z,5.72
2022-11-16T03:04:46.546Z,2.78
2022-11-16T03:07:19.205Z,4.90
2022-11-16T03:09:48.302Z,3.03
2022-11-16T03:12:19.536Z,3.10
2022-11-16T03:14:55.488Z,3.38
2022-11-16T03:17:28.017Z,4.32
2022-11-16T03:20:05.429Z,5.82
2022-11-16T03:22:40.938Z,4.88
2022-11-16T03:25:13.620Z,3.75
2022-11-16T03:27:46.497Z,3.55
2022-11-16T03:30:17.353Z,4.18
2022-11-16T03:32:54.188Z,5.60
2022-11-16T03:35:28.954Z,5.13
2022-11-16T03:38:00.369Z,3.83
2022-11-16T03:40:29.891Z,5.78
2022-11-16T03:42:57.511Z,4.28
2022-11-16T03:45:29.042Z,4.35
2022-11-16T03:48:01.366Z,5.05
2022-11-16T03:50:29.172Z,3.47
2022-11-16T03:52:56.810Z,4.80
2022-11-16T03:55:24.244Z,4.07
2022-11-16T03:57:51.591Z,4.85
2022-11-16T04:00:19.275Z,5.60
2022-11-16T04:02:46.888Z,5.03
2022-11-16T04:05:32.780Z,7.63
2022-11-16T04:08:19.087Z,6.18
2022-11-16T04:11:05.370Z,7.72
2022-11-16T04:13:52.776Z,5.30
2022-11-16T04:16:39.357Z,8.75
2022-11-16T04:19:28.142Z,7.25
2022-11-16T04:22:20.629Z,5.53
2022-11-16T04:24:50.385Z,7.93
2022-11-16T04:27:50.153Z,4.85
2022-11-16T04:30:18.000Z,6.20
2022-11-16T04:33:05.650Z,6.57
2022-11-16T04:35:53.997Z,5.63
2022-11-16T04:38:21.345Z,5.03
2022-11-16T04:40:58.638Z,6.05
2022-11-16T04:43:30.445Z,4.55
2022-11-16T04:46:17.428Z,6.97
2022-11-16T04:48:54.558Z,6.05
2022-11-16T04:51:24.265Z,8.55
2022-11-16T04:53:58.919Z,11.40
2022-11-16T04:56:26.456Z,7.53
2022-11-16T04:58:57.184Z,6.47
2022-11-16T05:01:45.884Z,8.90
2022-11-16T05:04:14.308Z,5.30
2022-11-16T05:06:41.723Z,5.03
2022-11-16T05:09:09.606Z,6.13
2022-11-16T05:11:36.935Z,4.88
2022-11-16T05:14:06.742Z,5.15
2022-11-16T05:16:40.837Z,5.65
2022-11-16T05:19:37.854Z,5.57
2022-11-16T05:22:08.105Z,7.22
2022-11-16T05:24:35.939Z,4.00
2022-11-16T05:27:04.392Z,8.43
2022-11-16T05:29:31.829Z,6.18
2022-11-16T05:32:07.568Z,7.28
2022-11-16T05:34:39.154Z,6.00
2022-11-16T05:37:06.661Z,7.10
2022-11-16T05:39:34.662Z,6.45
2022-11-16T05:42:06.897Z,6.63
2022-11-16T05:44:38.334Z,6.43
2022-11-16T05:47:05.765Z,4.30
2022-11-16T05:49:34.172Z,6.00
2022-11-16T05:52:01.816Z,6.05
2022-11-16T05:54:29.178Z,5.25
2022-11-16T05:56:57.275Z,5.25
2022-11-16T05:59:26.066Z,5.30
2022-11-16T06:01:55.076Z,6.47
2022-11-16T06:04:24.460Z,7.40
2022-11-16T06:06:52.677Z,5.45
2022-11-16T06:09:20.222Z,8.45
2022-11-16T06:11:47.637Z,8.60
2022-11-16T06:14:15.923Z,7.22
2022-11-16T06:16:44.061Z,8.43
2022-11-16T06:19:15.260Z,7.28
2022-11-16T06:21:42.851Z,10.13
2022-11-16T06:24:12.074Z,9.38
2022-11-16T06:26:39.784Z,14.85
2022-11-16T06:29:08.080Z,16.63
2022-11-16T06:31:35.906Z,11.73
2022-11-16T06:34:03.309Z,10.57
2022-11-16T06:36:30.835Z,9.75
2022-11-16T06:39:11.521Z,9.02
2022-11-16T06:41:41.526Z,7.30
2022-11-16T06:44:09.954Z,7.25
2022-11-16T06:46:40.880Z,7.47
2022-11-16T06:49:08.232Z,8.23
2022-11-16T06:51:42.542Z,10.30
2022-11-16T06:54:09.937Z,11.82
2022-11-16T06:59:37.175Z,9.35
2022-11-16T07:02:12.873Z,8.95
2022-11-16T07:04:40.827Z,8.23
2022-11-16T07:07:08.298Z,8.25
2022-11-16T07:09:36.272Z,9.93
2022-11-16T07:12:03.927Z,11.25
2022-11-16T07:14:31.309Z,8.65
2022-11-16T07:17:09.662Z,10.57
2022-11-16T07:19:38.451Z,9.05
2022-11-16T07:22:05.838Z,9.52
2022-11-16T07:24:38.524Z,10.90
2022-11-16T07:27:06.106Z,7.22
2022-11-16T07:29:46.303Z,8.57
2022-11-16T07:32:17.007Z,6.00
2022-11-16T07:34:45.385Z,6.82
2022-11-16T07:37:30.422Z,9.00
2022-11-16T07:40:16.070Z,7.65
2022-11-16T07:42:45.934Z,8.13
2022-11-16T07:45:28.057Z,8.05
2022-11-16T07:47:55.626Z,9.07
2022-11-16T07:50:23.962Z,8.30
2022-11-16T07:53:07.235Z,6.82
2022-11-16T07:55:36.145Z,7.13
2022-11-16T07:58:03.601Z,8.15
2022-11-16T08:00:52.268Z,7.35
2022-11-16T08:03:24.879Z,9.52
2022-11-16T08:05:59.693Z,8.32
2022-11-16T08:08:27.136Z,8.00
2022-11-16T08:11:00.438Z,8.13
2022-11-16T08:13:28.105Z,8.18
2022-11-16T08:15:58.141Z,9.35
2022-11-16T08:18:25.903Z,8.75
2022-11-16T08:20:55.579Z,8.55
2022-11-16T08:23:24.904Z,7.43
2022-11-16T08:26:13.444Z,6.57
2022-11-16T08:28:42.218Z,7.03
2022-11-16T08:31:10.767Z,9.63
2022-11-16T08:33:38.141Z,7.68
2022-11-16T08:36:12.524Z,11.23
2022-11-16T08:38:41.840Z,16.42
2022-11-16T08:41:09.291Z,12.07
2022-11-16T08:43:51.415Z,11.90
2022-11-16T08:46:21.520Z,18.52
2022-11-16T08:48:49.851Z,10.30
2022-11-16T08:51:21.199Z,12.77
2022-11-16T08:53:49.876Z,14.23
2022-11-16T08:56:19.002Z,20.25
2022-11-16T08:59:03.961Z,17.65
2022-11-16T09:01:33.059Z,17.25
2022-11-16T09:04:00.874Z,16.40
2022-11-16T09:06:28.727Z,15.85
2022-11-16T09:08:57.934Z,18.92
2022-11-16T09:11:30.285Z,18.67
2022-11-16T09:13:59.200Z,23.13
2022-11-16T09:16:28.071Z,22.98
2022-11-16T09:19:00.564Z,25.90
2022-11-16T09:21:29.402Z,21.13
2022-11-16T09:23:57.862Z,26.73
2022-11-16T09:26:26.443Z,27.35
2022-11-16T09:28:55.934Z,25.38
2022-11-16T09:31:36.183Z,27.95
2022-11-16T09:34:04.361Z,25.73
2022-11-16T09:36:32.055Z,31.55
2022-11-16T09:39:29.627Z,26.50
2022-11-16T09:42:10.258Z,27.23
2022-11-16T09:44:38.066Z,27.48
2022-11-16T09:47:31.932Z,24.63
2022-11-16T09:50:03.987Z,26.63
2022-11-16T09:52:38.077Z,24.67
2022-11-16T09:55:18.148Z,25.55
2022-11-16T09:57:46.365Z,25.05
2022-11-16T10:00:18.444Z,23.63
2022-11-16T10:02:49.193Z,28.08
2022-11-16T10:05:26.058Z,25.35
2022-11-16T10:07:56.243Z,23.83
2022-11-16T10:10:29.257Z,26.58
2022-11-16T10:12:56.621Z,24.92
2022-11-16T10:15:42.990Z,26.95
2022-11-16T10:18:31.878Z,25.83
2022-11-16T10:20:59.303Z,23.55
2022-11-16T10:23:26.888Z,21.45
2022-11-16T10:25:59.334Z,18.77
2022-11-16T10:28:26.745Z,19.00
2022-11-16T10:30:57.224Z,19.10
2022-11-16T10:33:26.452Z,18.70
2022-11-16T10:35:54.617Z,22.50
2022-11-16T10:38:23.431Z,24.02
2022-11-16T10:40:54.224Z,23.63
2022-11-16T10:43:24.231Z,21.05
2022-11-16T10:45:56.079Z,21.70
2022-11-16T10:48:37.721Z,26.65
2022-11-16T10:51:05.586Z,20.92
2022-11-16T10:53:35.926Z,19.25
2022-11-16T10:56:18.502Z,19.50
2022-11-16T10:59:02.286Z,18.83
2022-11-16T11:01:37.785Z,18.67
2022-11-16T11:04:17.663Z,18.90
2022-11-16T11:06:45.595Z,17.48
2022-11-16T11:09:31.779Z,17.35
2022-11-16T11:12:20.573Z,19.40
2022-11-16T11:15:00.379Z,18.02
2022-11-16T11:17:27.961Z,20.58
2022-11-16T11:20:18.678Z,40.92
2022-11-16T11:22:49.081Z,18.10
2022-11-16T11:25:36.653Z,16.98
2022-11-16T11:28:09.041Z,17.17
2022-11-16T11:30:36.746Z,17.40
2022-11-16T11:33:10.539Z,20.73
2022-11-16T11:35:37.927Z,19.27
2022-11-16T11:38:08.362Z,20.60
2022-11-16T11:40:36.367Z,20.60
2022-11-16T11:43:05.138Z,22.25
2022-11-16T11:45:35.517Z,22.90
2022-11-16T11:48:04.140Z,21.05
2022-11-16T11:50:34.652Z,19.80
2022-11-16T11:53:02.252Z,23.42
2022-11-16T11:55:29.837Z,20.30
2022-11-16T11:57:57.688Z,21.27
2022-11-16T12:00:26.255Z,26.85
2022-11-16T12:02:59.766Z,26.55
2022-11-16T12:05:27.116Z,22.83
2022-11-16T12:08:03.506Z,22.40
2022-11-16T12:10:43.272Z,25.52
2022-11-16T12:13:31.544Z,25.55
2022-11-16T12:16:22.372Z,27.90
2022-11-16T12:19:09.934Z,22.27
2022-11-16T12:21:40.358Z,30.00
2022-11-16T12:24:26.653Z,23.58
2022-11-16T12:27:10.711Z,23.15
2022-11-16T12:29:57.057Z,24.25
2022-11-16T12:32:43.226Z,27.15
2022-11-16T12:35:16.907Z,24.92
2022-11-16T12:37:44.208Z,22.73
2022-11-16T12:40:35.951Z,20.13
2022-11-16T12:43:03.276Z,20.17
2022-11-16T12:45:33.516Z,21.02
2022-11-16T12:48:13.214Z,20.33
2022-11-16T12:50:59.277Z,19.52
2022-11-16T12:53:26.544Z,21.08
2022-11-16T12:55:59.905Z,22.60
2022-11-16T12:58:39.425Z,24.33
2022-11-16T13:01:06.921Z,19.88
2022-11-16T13:03:39.637Z,22.02
2022-11-16T13:06:17.697Z,24.90
2022-11-16T13:08:45.011Z,22.20
2022-11-16T13:11:12.841Z,30.50
2022-11-16T13:13:40.528Z,22.23
2022-11-16T13:16:08.281Z,22.55
2022-11-16T13:18:36.581Z,24.15
2022-11-16T13:21:08.000Z,23.42
2022-11-16T13:24:00.450Z,25.75
2022-11-16T13:26:42.708Z,24.35
2022-11-16T13:29:15.969Z,24.08
2022-11-16T13:31:46.478Z,25.17
2022-11-16T13:34:22.903Z,23.10
2022-11-16T13:36:50.354Z,36.50
2022-11-16T13:39:22.713Z,23.35
2022-11-16T13:41:51.461Z,24.98
2022-11-16T13:44:21.682Z,23.80
2022-11-16T13:46:56.261Z,23.23
2022-11-16T13:51:56.470Z,19.92
2022-11-16T13:54:45.202Z,18.60
2022-11-16T13:57:28.774Z,21.30
2022-11-16T14:00:02.005Z,24.88
2022-11-16T14:02:31.013Z,20.63
2022-11-16T14:04:59.843Z,21.73
2022-11-16T14:07:34.827Z,21.40
2022-11-16T14:10:05.686Z,21.25
2022-11-16T14:12:38.954Z,20.58
2022-11-16T14:15:23.041Z,19.05
2022-11-16T14:18:10.795Z,17.77
2022-11-16T14:20:38.178Z,21.73
2022-11-16T14:23:28.820Z,22.95
2022-11-16T14:26:15.045Z,21.30
2022-11-16T14:28:42.543Z,24.25
2022-11-16T14:31:10.108Z,22.88
2022-11-16T14:33:38.484Z,24.20
2022-11-16T14:36:08.168Z,23.77
2022-11-16T14:38:35.589Z,24.80
2022-11-16T14:41:04.159Z,24.00
2022-11-16T14:43:45.875Z,26.92
2022-11-16T14:46:34.861Z,23.45
2022-11-16T14:49:02.863Z,31.27
2022-11-16T14:51:37.642Z,31.15
2022-11-16T14:54:25.402Z,27.70
2022-11-16T14:56:57.218Z,26.58
2022-11-16T14:59:24.956Z,26.10
2022-11-16T15:01:53.157Z,27.90
2022-11-16T15:04:21.753Z,22.20
2022-11-16T15:07:05.626Z,27.33
2022-11-16T15:09:39.505Z,26.60
2022-11-16T15:12:31.130Z,27.17
2022-11-16T15:15:01.457Z,25.77
2022-11-16T15:17:33.277Z,30.85
2022-11-16T15:20:02.546Z,31.95
2022-11-16T15:22:31.566Z,34.25
2022-11-16T15:25:02.515Z,29.98
2022-11-16T15:27:29.774Z,32.03
2022-11-16T15:29:57.922Z,38.50
2022-11-16T15:32:25.397Z,36.38
2022-11-16T15:34:54.173Z,31.00
2022-11-16T15:37:28.361Z,36.40
2022-11-16T15:39:56.568Z,35.70
2022-11-16T15:42:24.709Z,33.45
2022-11-16T15:44:52.843Z,32.83
2022-11-16T15:47:20.805Z,33.80
2022-11-16T15:49:53.220Z,34.85
2022-11-16T15:52:39.492Z,32.30
2022-11-16T15:55:06.972Z,35.80
2022-11-16T15:57:34.498Z,34.22
2022-11-16T16:00:01.868Z,36.63
2022-11-16T16:02:31.161Z,36.95
2022-11-16T16:04:58.581Z,40.42
2022-11-16T16:07:42.725Z,40.33
2022-11-16T16:10:28.321Z,41.83
2022-11-16T16:12:56.611Z,37.15
2022-11-16T16:15:25.400Z,39.70
2022-11-16T16:17:54.160Z,44.95
2022-11-16T16:20:22.907Z,38.03
2022-11-16T16:22:50.664Z,36.60
2022-11-16T16:25:31.875Z,35.17
2022-11-16T16:27:59.409Z,37.60
2022-11-16T16:30:27.321Z,34.58
2022-11-16T16:32:54.893Z,35.30
2022-11-16T16:35:24.264Z,38.35
2022-11-16T16:38:03.637Z,40.95
2022-11-16T16:40:31.037Z,34.63
2022-11-16T16:42:58.793Z,34.25
2022-11-16T16:45:29.222Z,35.90
2022-11-16T16:47:56.741Z,37.08
2022-11-16T16:50:24.327Z,40.80
2022-11-16T16:52:51.852Z,36.65
2022-11-16T16:55:21.583Z,38.83
2022-11-16T16:57:51.871Z,34.55
2022-11-16T17:00:19.325Z,35.83
2022-11-16T17:02:46.823Z,37.50
2022-11-16T17:05:14.189Z,33.20
2022-11-16T17:07:42.196Z,31.65
2022-11-16T17:10:09.741Z,30.63
2022-11-16T17:12:37.122Z,30.83
2022-11-16T17:15:04.807Z,28.75
2022-11-16T17:17:32.519Z,31.20
2022-11-16T17:20:00.176Z,28.73
2022-11-16T17:22:27.845Z,31.88
2022-11-16T17:24:55.116Z,29.20
2022-11-16T17:27:25.131Z,26.90
2022-11-16T17:29:52.772Z,27.33
2022-11-16T17:32:20.218Z,29.52
2022-11-16T17:34:47.691Z,25.55
2022-11-16T17:37:15.038Z,32.20
2022-11-16T17:39:42.505Z,28.45
2022-11-16T17:42:09.927Z,26.17
2022-11-16T17:44:37.405Z,26.58
2022-11-16T17:47:04.928Z,28.90
2022-11-16T17:49:32.306Z,29.15
2022-11-16T17:52:00.099Z,24.63
2022-11-16T17:54:27.482Z,24.05
2022-11-16T17:56:54.915Z,23.13
2022-11-16T17:59:27.961Z,21.75
2022-11-16T18:01:59.156Z,22.30
2022-11-16T18:04:26.544Z,23.30
2022-11-16T18:06:54.035Z,22.50
2022-11-16T18:09:21.399Z,23.60
2022-11-16T18:11:48.717Z,24.70
2022-11-16T18:14:16.151Z,22.05
2022-11-16T18:16:44.524Z,24.50
2022-11-16T18:19:16.239Z,17.67
2022-11-16T18:21:43.696Z,23.15
2022-11-16T18:24:11.375Z,22.17
2022-11-16T18:26:40.386Z,24.70
2022-11-16T18:29:09.561Z,22.58
2022-11-16T18:31:37.166Z,20.33
2022-11-16T18:34:04.644Z,17.92
2022-11-16T18:36:32.048Z,20.98
2022-11-16T18:39:00.286Z,22.20
2022-11-16T18:41:29.590Z,19.60
2022-11-16T18:44:00.907Z,20.10
2022-11-16T18:46:29.477Z,20.15
2022-11-16T18:48:57.543Z,16.73
2022-11-16T18:51:26.429Z,22.23
2022-11-16T18:53:53.782Z,21.15
2022-11-16T18:56:21.251Z,23.15
2022-11-16T18:58:51.911Z,24.02
2022-11-16T19:01:20.950Z,22.13
2022-11-16T19:03:51.514Z,20.83
2022-11-16T19:06:19.117Z,25.67
2022-11-16T19:08:53.688Z,19.33
2022-11-16T19:11:22.578Z,17.55
2022-11-16T19:13:53.169Z,22.27
2022-11-16T19:16:20.589Z,18.95
2022-11-16T19:18:48.598Z,20.23
2022-11-16T19:21:18.577Z,19.08
2022-11-16T19:23:47.076Z,18.75
2022-11-16T19:26:15.419Z,17.85
2022-11-16T19:28:46.054Z,20.25
2022-11-16T19:31:21.472Z,32.45
2022-11-16T19:33:48.887Z,21.42
2022-11-16T19:36:17.575Z,17.60
2022-11-16T19:38:45.596Z,22.40
2022-11-16T19:41:13.755Z,25.15
2022-11-16T19:43:41.615Z,23.30
2022-11-16T19:46:10.371Z,21.85
2022-11-16T19:48:38.134Z,18.52
2022-11-16T19:51:06.488Z,25.73
2022-11-16T19:53:35.769Z,23.75
2022-11-16T19:56:03.825Z,24.75
2022-11-16T19:58:32.193Z,22.42
2022-11-16T20:01:07.188Z,23.42
2022-11-16T20:03:35.210Z,21.98
2022-11-16T20:06:10.678Z,22.10
2022-11-16T20:11:15.373Z,24.60
2022-11-16T20:13:42.735Z,26.40
2022-11-16T20:16:11.511Z,26.13
2022-11-16T20:18:39.495Z,22.70
2022-11-16T20:21:07.333Z,27.15
2022-11-16T20:23:35.272Z,24.70
2022-11-16T20:26:07.221Z,22.65
2022-11-16T20:28:35.558Z,29.73
2022-11-16T20:31:05.485Z,26.10
2022-11-16T20:33:36.410Z,25.70
2022-11-16T20:36:04.919Z,28.13
2022-11-16T20:38:35.722Z,24.10
2022-11-16T20:41:10.306Z,22.42
2022-11-16T20:43:39.419Z,21.48
2022-11-16T20:46:14.381Z,22.67
2022-11-16T20:48:48.836Z,18.85
2022-11-16T20:51:17.378Z,22.17
2022-11-16T20:53:45.328Z,20.10
2022-11-16T20:56:13.162Z,20.25
2022-11-16T20:58:40.812Z,20.65
2022-11-16T21:01:09.591Z,22.65
2022-11-16T21:03:37.518Z,23.23
2022-11-16T21:06:08.566Z,23.23
2022-11-16T21:08:36.683Z,22.65
2022-11-16T21:11:10.124Z,24.02
2022-11-16T21:13:56.035Z,21.23
2022-11-16T21:16:23.565Z,20.73
2022-11-16T21:18:50.898Z,20.45
2022-11-16T21:21:18.265Z,22.13
2022-11-16T21:23:51.589Z,24.20
2022-11-16T21:26:20.764Z,23.70
2022-11-16T21:28:48.419Z,22.55
2022-11-16T21:31:17.157Z,23.67
2022-11-16T21:33:45.360Z,20.75
2022-11-16T21:36:13.852Z,20.52
2022-11-16T21:38:41.249Z,25.60
2022-11-16T21:41:09.607Z,24.02
2022-11-16T21:43:37.590Z,23.08
2022-11-16T21:46:06.273Z,25.48
2022-11-16T21:48:34.480Z,23.58
2022-11-16T21:51:03.145Z,25.55
2022-11-16T21:53:30.747Z,22.38
2022-11-16T21:55:58.316Z,21.33
2022-11-16T21:58:26.098Z,22.52
2022-11-16T22:01:01.157Z,19.45
2022-11-16T22:03:29.670Z,20.05
2022-11-16T22:06:17.123Z,17.60
2022-11-16T22:08:45.117Z,18.33
2022-11-16T22:11:13.247Z,19.80
2022-11-16T22:13:40.771Z,17.40
2022-11-16T22:16:09.172Z,18.02
2022-11-16T22:18:36.808Z,18.88
2022-11-16T22:21:04.395Z,15.95
2022-11-16T22:23:32.106Z,16.25
2022-11-16T22:26:04.331Z,15.65
2022-11-16T22:28:32.752Z,16.67
2022-11-16T22:31:03.711Z,14.18
2022-11-16T22:33:31.484Z,12.98
2022-11-16T22:35:59.006Z,11.93
2022-11-16T22:38:26.815Z,12.63
2022-11-16T22:40:54.948Z,11.95
2022-11-16T22:43:23.768Z,10.15
2022-11-16T22:45:51.111Z,11.93
2022-11-16T22:48:18.759Z,12.85
2022-11-16T22:50:46.082Z,9.85
2022-11-16T22:53:13.645Z,11.50
2022-11-16T22:55:41.213Z,10.68
2022-11-16T22:58:09.941Z,10.05
2022-11-16T23:00:41.847Z,11.75
2022-11-16T23:03:09.763Z,10.95
2022-11-16T23:05:37.111Z,12.27
2022-11-16T23:08:04.513Z,9.88
2022-11-16T23:10:51.723Z,10.57
2022-11-16T23:13:38.108Z,13.20
2022-11-16T23:16:05.650Z,9.20
2022-11-16T23:18:33.011Z,9.55
2022-11-16T23:21:19.156Z,10.73
2022-11-16T23:24:25.358Z,11.38
2022-11-16T23:27:11.275Z,9.30
2022-11-16T23:29:38.604Z,7.20
2022-11-16T23:32:06.166Z,6.03
2022-11-16T23:34:33.570Z,6.85
2022-11-16T23:37:07.533Z,7.80
2022-11-16T23:39:34.862Z,6.72
2022-11-16T23:42:20.795Z,8.27
2022-11-16T23:44:48.124Z,7.90
2022-11-16T23:47:15.567Z,7.25
2022-11-16T23:49:42.932Z,7.95
2022-11-16T23:52:10.249Z,8.05
2022-11-16T23:54:37.631Z,8.07
2022-11-16T23:57:05.207Z,7.47
2022-11-16T23:59:33.056Z,7.60
